KPMU

Panola County Airport

Batesville, Mississippi, USA
METAR KPMU 220515Z AUTO 00000KT 10SM FEW070 SCT080 SCT090 21/21 A2979 RMK AO2 LTG DSNT SE
Observed Flight Rules
Jun-22 @ 05:15 UTC (16 minutes ago) Visual Flight Rules
Visibility Clouds
10 miles
  • Few at 7,000' AGL
  • Scattered at 8,000' AGL
  • Scattered at 9,000' AGL
Temperatures Readings
Current 21°C / 70°F
Dewpoint 21°C / 70°F
Humidity 100%
Altimeter 29.79" Hg
Pressure 1009 hPa
Elevation 67
METAR KPMU 220515Z AUTO 00000KT 10SM FEW070 SCT080 SCT090 21/21 A2979 RMK AO2 LTG DSNT SE
Observed Flight Rules
Jun-22 @ 05:15 UTC
(16 minutes ago)
VFR
Clouds
  • Few at 7,000' AGL
  • Scattered at 8,000' AGL
  • Scattered at 9,000' AGL
Temperature Dewpoint
21°C / 70°F 21°C / 70°F
Humidity Altimeter Pressure
100% 29.79" Hg 1009 hPa